Terminal Aerodrome Forecast
Issued by NWS Charleston, WV

Current Version | Previous Version | Text Only | Print | Product List | Glossary Off
Versions: 1 2 3 4 5 6 7 8 9 10 11 12 13 14 15 16 17 18 19 20 21 22 23 24 25

564
FTUS41 KRLX 231133
TAFEKN
TAF
KEKN 231133Z 2312/2412 00000KT 1/2SM FG BKN002
     FM231300 VRB02KT 3SM BR SCT005
     FM231400 28004KT P6SM FEW020
     FM231800 29006KT P6SM SCT040
     FM240800 00000KT 1SM BR BKN001=

USA.gov is the U.S. government's official web portal to all federal, state and local government web resources and services.